Buoy 32622

sailwx.info

Track history (hours):
 
Tides and Currents Weather Stations Pressure Air Temp Water Temp Dewpoint Dewpoint Depression Visibility Wind Speed Wind Dir Waves Ship Positions

Aadnyj

Last reported at 2015-Jan-27 09:59 UTC. Time now 2015-Jan-27 12:31 UTC.
Position S 21°02' W 165°45'.

Length 56 m.

Type: Towing. MMSI: 413600286.

Water temperature 28.0 ° C

Date/timePositionNaut miles runAvg speedWind from/ knotsBaromVisibWave heightAir tempDewpointWater temp
2015-Jan-27 09:59S 21°02' W 165°45'0 0.1 28.0
2015-Jan-27 09:10S 21°02' W 165°45'0 3.7 28.1
2015-Jan-27 09:05S 21°02' W 165°45'0 0.0 28.1
2015-Jan-27 08:16S 21°02' W 165°45'0 0.3 28.1
2015-Jan-27 07:27S 21°02' W 165°45'0 0.2 28.1
2015-Jan-27 05:16S 21°02' W 165°45'0 0.2 28.3
2015-Jan-27 03:46S 21°02' W 165°45'0 1.0 28.4
2015-Jan-27 03:16S 21°02' W 165°45'1 0.5 28.4
2015-Jan-27 01:45S 21°03' W 165°45'0 0.0 28.5
2015-Jan-27 01:42S 21°03' W 165°45'1 0.7 28.5
2015-Jan-27 00:01S 21°03' W 165°46'1 0.4 28.4
2015-Jan-26 21:29S 21°03' W 165°47'1 0.9 28.2
2015-Jan-26 20:36S 21°03' W 165°48'0 0.2 28.0
2015-Jan-26 19:52S 21°03' W 165°48'0 0.2 27.8
2015-Jan-26 18:57S 21°04' W 165°48'1 0.9 27.7
2015-Jan-26 18:15S 21°04' W 165°49'0 0.1 27.6
2015-Jan-26 16:41S 21°04' W 165°49'1 0.6 27.6
2015-Jan-26 15:11S 21°04' W 165°49'1 1.4 27.6
2015-Jan-26 14:45S 21°04' W 165°49'1 0.5 27.7
2015-Jan-26 13:13S 21°04' W 165°50'0 0.0 27.7
2015-Jan-26 13:07S 21°04' W 165°50'2 1.2 27.7
2015-Jan-26 11:28S 21°04' W 165°52'0 0.2 27.9
2015-Jan-26 09:30S 21°04' W 165°53'0 0.5 28.1
2015-Jan-26 08:42S 21°04' W 165°53'1 0.8 28.2
2015-Jan-26 07:46S 21°03' W 165°53'1 0.3 28.2
2015-Jan-26 05:59S 21°03' W 165°54'0 0.1 28.4
2015-Jan-26 04:15S 21°03' W 165°54'0 1.6 28.5
2015-Jan-26 04:01S 21°03' W 165°54'0 0.4 28.5
2015-Jan-26 03:30S 21°03' W 165°54'0 0.3 28.7
2015-Jan-26 01:57S 21°04' W 165°54'0 2.6 28.7
2015-Jan-26 01:51S 21°03' W 165°55'0 0.1 28.7
2015-Jan-26 00:15S 21°03' W 165°55'1 0.5 28.7
2015-Jan-25 21:54S 21°03' W 165°56'0 0.2 28.0
2015-Jan-25 20:50S 21°04' W 165°56'0 0.0 27.7
2015-Jan-25 20:15S 21°04' W 165°56'0 0.0 27.5
2015-Jan-25 20:12S 21°04' W 165°56'0 0.3 27.5
2015-Jan-25 19:16S 21°03' W 165°56'1 1.6 27.4
2015-Jan-25 18:50S 21°04' W 165°56'1 0.3 27.3
2015-Jan-25 17:12S 21°04' W 165°57'1 0.7 27.3
2015-Jan-25 15:28S 21°05' W 165°57'0 0.1 27.3
2015-Jan-25 14:56S 21°05' W 165°57'1 0.8 27.3
2015-Jan-25 13:24S 21°06' W 165°58'0 0.4 27.3
2015-Jan-25 13:16S 21°06' W 165°58'111.7 27.3
2015-Jan-25 13:12S 21°06' W 165°59'0 0.0 27.3
2015-Jan-25 11:40S 21°06' W 165°59'1 0.6 27.4
2015-Jan-25 09:46S 21°06' W 166°00'0 0.7 27.4
2015-Jan-25 09:05S 21°06' W 166°01'0 0.0 27.4
2015-Jan-25 09:01S 21°06' W 166°01'0 0.1 27.4
2015-Jan-25 08:11S 21°06' W 166°01'1 0.9 27.5
2015-Jan-25 07:20S 21°06' W 166°01'0 0.0 27.5
2015-Jan-25 06:27S 21°06' W 166°01'1 0.5 27.6
2015-Jan-25 05:16S 21°07' W 166°02'0 0.7 27.6
2015-Jan-25 04:46S 21°07' W 166°02'1 0.8 27.7
2015-Jan-25 03:43S 21°07' W 166°03'0 0.0 27.7
2015-Jan-25 03:40S 21°07' W 166°03'1 1.4 27.7
2015-Jan-25 03:07S 21°07' W 166°04'0 0.0 27.6
2015-Jan-25 02:45S 21°07' W 166°04'0 0.0 27.6
2015-Jan-25 02:08S 21°07' W 166°04'0 0.0 27.6
2015-Jan-25 02:04S 21°07' W 166°04'1 0.7 27.6
2015-Jan-25 00:26S 21°07' W 166°05'0 0.1 27.6
2015-Jan-24 20:37S 21°07' W 166°05'0 0.4 27.4
2015-Jan-24 20:29S 21°07' W 166°05'0 0.4 27.4
2015-Jan-24 19:39S 21°06' W 166°06'0 0.0 27.3
2015-Jan-24 19:16S 21°06' W 166°06'1 0.4 27.3
2015-Jan-24 17:45S 21°07' W 166°06'0 1.3 27.2
2015-Jan-24 17:40S 21°07' W 166°06'1 1.2 27.2
2015-Jan-24 16:50S 21°07' W 166°07'0 0.0 27.2
2015-Jan-24 16:04S 21°07' W 166°07'1 3.6 27.3
2015-Jan-24 15:53S 21°08' W 166°07'0 0.0 27.3
2015-Jan-24 15:10S 21°08' W 166°07'0 0.0 27.3
2015-Jan-24 15:06S 21°08' W 166°07'1 1.4 27.3
2015-Jan-24 14:21S 21°08' W 166°08'0 0.2 27.3
2015-Jan-24 11:51S 21°09' W 166°08'1 0.4 27.3
2015-Jan-24 09:25S 21°09' W 166°09'1 0.6 27.4
2015-Jan-24 08:30S 21°10' W 166°10'0 0.3 27.4
2015-Jan-24 07:42S 21°10' W 166°10'1 0.5 27.4
2015-Jan-24 05:16S 21°10' W 166°11'2 1.2 27.6
2015-Jan-24 03:55S 21°11' W 166°13'0 0.0 27.6
2015-Jan-24 03:52S 21°11' W 166°13'0 1.5 27.6
2015-Jan-24 03:40S 21°11' W 166°12'1 1.1 27.6
2015-Jan-24 03:13S 21°11' W 166°13'0 0.4 27.7
2015-Jan-24 02:16S 21°11' W 166°13'0 0.0 27.7
2015-Jan-24 02:15S 21°11' W 166°13'1 8.8 27.7
2015-Jan-24 02:08S 21°11' W 166°14'0 0.0 27.7
2015-Jan-24 00:38S 21°11' W 166°14'0 3.4
2015-Jan-24 00:37S 21°11' W 166°14'1 0.4 27.5
2015-Jan-23 20:57S 21°11' W 166°16'0 3.7 27.2
2015-Jan-23 20:51S 21°11' W 166°16'0 0.0 27.2
2015-Jan-23 19:59S 21°11' W 166°16'0 0.6 27.2
2015-Jan-23 19:14S 21°11' W 166°16'1 0.2 27.1
2015-Jan-23 16:30S 21°11' W 166°17'0 0.4 27.1
2015-Jan-23 15:16S 21°10' W 166°17'0 0.6 27.2
2015-Jan-23 14:45S 21°11' W 166°17'0 0.0 27.2
2015-Jan-23 13:46S 21°11' W 166°17'0 0.0 27.2
2015-Jan-23 13:37S 21°11' W 166°17'121.2 27.2
2015-Jan-23 13:33S 21°11' W 166°18'0 0.0 27.2
2015-Jan-23 12:05S 21°11' W 166°18'0 2.4 27.2
2015-Jan-23 12:02S 21°11' W 166°18'1 0.2 27.2
2015-Jan-23 09:44S 21°12' W 166°19'1 1.6 27.2
2015-Jan-23 08:53S 21°12' W 166°20'0 1.2 27.2
2015-Jan-23 08:50S 21°12' W 166°20'1 0.9 27.2
2015-Jan-23 08:05S 21°12' W 166°19'0 0.1 27.2
2015-Jan-23 07:09S 21°12' W 166°19'0 0.3 27.2
2015-Jan-23 05:53S 21°13' W 166°20'0 0.4 27.3
2015-Jan-23 05:42S 21°13' W 166°20'0 0.1 27.3
2015-Jan-23 05:16S 21°13' W 166°20'1 0.7 27.3
2015-Jan-23 04:14S 21°13' W 166°20'0 4.5 27.3
2015-Jan-23 04:11S 21°13' W 166°20'0 1.0 27.3
2015-Jan-23 03:58S 21°13' W 166°20'0 0.7 27.4
2015-Jan-23 03:40S 21°13' W 166°20'1 0.6 27.4
2015-Jan-23 02:25S 21°14' W 166°21'115.4 27.4
2015-Jan-23 02:21S 21°13' W 166°21'1 0.9 27.4
2015-Jan-23 00:49S 21°14' W 166°22'0 0.0 27.4
2015-Jan-23 00:48S 21°14' W 166°22'1 7.3 27.4
2015-Jan-23 00:38S 21°14' W 166°23'1 0.2 27.4
2015-Jan-22 21:15S 21°14' W 166°23'0 0.2 27.2
2015-Jan-22 20:17S 21°14' W 166°24'0 0.0 27.2
2015-Jan-22 19:30S 21°14' W 166°24'1 1.2 27.1
2015-Jan-22 18:45S 21°14' W 166°24'0 0.0 27.1
2015-Jan-22 18:40S 21°14' W 166°24'1 0.7 27.1
2015-Jan-22 17:11S 21°15' W 166°24'0 0.7 27.1
2015-Jan-22 17:06S 21°15' W 166°24'0 0.0 27.1
2015-Jan-22 15:10S 21°15' W 166°24'2 1.4 27.1
2015-Jan-22 13:57S 21°15' W 166°26'0 0.0 27.2
2015-Jan-22 13:49S 21°15' W 166°26'0 0.0 27.2
2015-Jan-22 12:16S 21°15' W 166°26'0 0.0 27.2
2015-Jan-22 12:13S 21°15' W 166°26'1 0.5 27.2
2015-Jan-22 10:48S 21°16' W 166°26'1 0.3 27.2
2015-Jan-22 08:25S 21°16' W 166°27'0 0.3 27.2
2015-Jan-22 07:29S 21°16' W 166°27'0 0.4 27.3
2015-Jan-22 06:23S 21°16' W 166°28'1 1.2 27.3
2015-Jan-22 05:53S 21°17' W 166°28'0 0.0 27.3
2015-Jan-22 04:45S 21°17' W 166°28'0 0.0 27.4
2015-Jan-22 04:42S 21°17' W 166°28'0 0.7 27.4
2015-Jan-22 04:14S 21°17' W 166°28'0 2.7 27.4
2015-Jan-22 04:05S 21°17' W 166°28'0 5.7 27.4
2015-Jan-22 04:03S 21°17' W 166°28'0 0.3 27.4
2015-Jan-22 03:01S 21°17' W 166°28'0 0.8 27.4
2015-Jan-22 02:39S 21°17' W 166°28'0 1.9 27.4
2015-Jan-22 02:30S 21°17' W 166°28'1 0.7 27.4
2015-Jan-22 00:59S 21°18' W 166°29'1 0.4 27.4
2015-Jan-21 21:37S 21°19' W 166°30'1 0.5 27.2
2015-Jan-21 19:55S 21°19' W 166°31'1 0.8 27.1
2015-Jan-21 19:13S 21°20' W 166°31'0 1.1 27.1
2015-Jan-21 19:01S 21°20' W 166°31'1 0.7 27.1
2015-Jan-21 17:35S 21°21' W 166°31'1 5.3 27.0
2015-Jan-21 17:21S 21°21' W 166°32'0 0.0 27.0
2015-Jan-21 15:58S 21°21' W 166°32'0 0.0 27.1
2015-Jan-21 15:45S 21°21' W 166°32'1 7.7 27.1
2015-Jan-21 15:39S 21°22' W 166°32'1 0.5 27.1
2015-Jan-21 14:00S 21°22' W 166°33'1 0.7 27.1
2015-Jan-21 12:24S 21°23' W 166°34'2 0.6 27.1
2015-Jan-21 08:47S 21°24' W 166°36'0 0.1 27.2
2015-Jan-21 07:53S 21°24' W 166°36'1 0.6 27.2
2015-Jan-21 06:01S 21°25' W 166°36'0 0.0 27.2
2015-Jan-21 05:16S 21°25' W 166°36'0 3.4 27.3
2015-Jan-21 05:11S 21°25' W 166°36'1 1.5 27.3
2015-Jan-21 04:30S 21°25' W 166°37'1 4.2 27.3
2015-Jan-21 04:22S 21°26' W 166°37'0 0.0 27.3
2015-Jan-21 03:34S 21°26' W 166°37'0 0.5 27.3
2015-Jan-21 02:46S 21°26' W 166°37'2 0.9 27.3
2015-Jan-21 01:10S 21°27' W 166°39'3 0.9 27.4
2015-Jan-20 21:57S 21°29' W 166°41'1 0.6 27.2
2015-Jan-20 21:00S 21°29' W 166°40'1 5.9 27.1
2015-Jan-20 20:54S 21°29' W 166°41'1 0.8 27.1
2015-Jan-20 20:12S 21°29' W 166°41'0 0.4 27.1
2015-Jan-20 19:21S 21°29' W 166°41'1 0.6 27.1
2015-Jan-20 18:10S 21°30' W 166°41'1 0.6 27.1
2015-Jan-20 16:30S 21°31' W 166°42'1 1.0 27.1
2015-Jan-20 15:58S 21°31' W 166°42'0 5.3 27.1
2015-Jan-20 15:56S 21°31' W 166°42'0 1.8 27.1
2015-Jan-20 15:50S 21°31' W 166°42'110.7 27.1
2015-Jan-20 15:44S 21°32' W 166°43'0 0.2 27.1
2015-Jan-20 14:12S 21°32' W 166°43'2 1.0 27.1
2015-Jan-20 12:39S 21°33' W 166°44'0 0.0 27.1
2015-Jan-20 12:30S 21°33' W 166°44'2 0.8 27.1
2015-Jan-20 09:54S 21°34' W 166°46'1 0.8 27.2
2015-Jan-20 09:04S 21°35' W 166°47'1 0.8 27.2
2015-Jan-20 08:14S 21°35' W 166°47'1 0.7 27.2
2015-Jan-20 07:25S 21°35' W 166°47'2 1.0 27.2
2015-Jan-20 05:47S 21°36' W 166°49'0 0.4 27.3
2015-Jan-20 04:54S 21°36' W 166°49'1 5.7 27.4
2015-Jan-20 04:47S 21°37' W 166°50'0 0.0 27.4
2015-Jan-20 04:08S 21°37' W 166°50'0 1.2 27.4
2015-Jan-20 04:05S 21°37' W 166°50'1 1.1 27.4
2015-Jan-20 03:12S 21°37' W 166°51'0 0.0 27.5
2015-Jan-20 03:01S 21°37' W 166°51'0 6.7 27.5
2015-Jan-20 02:58S 21°37' W 166°51'1 0.8 27.5
2015-Jan-20 01:22S 21°38' W 166°52'0 0.0 27.5
2015-Jan-20 01:20S 21°38' W 166°52'1 0.8 27.5
2015-Jan-19 23:38S 21°38' W 166°53'0 0.2 27.4
2015-Jan-19 20:35S 21°39' W 166°54'1 0.8 27.2
2015-Jan-19 19:46S 21°39' W 166°54'0 1.1
2015-Jan-19 19:43S 21°39' W 166°54'2 1.9 27.1
2015-Jan-19 18:51S 21°40' W 166°55'1 5.2 27.1
2015-Jan-19 18:41S 21°39' W 166°55'1 0.5 27.1
2015-Jan-19 17:00S 21°40' W 166°55'1 0.9 27.0
2015-Jan-19 16:07S 21°41' W 166°56'0 0.6 27.1
2015-Jan-19 16:01S 21°41' W 166°56'1 0.6 27.1
2015-Jan-19 14:45S 21°41' W 166°56'0 1.5 27.1
2015-Jan-19 14:29S 21°42' W 166°56'0 5.9 27.1
2015-Jan-19 14:26S 21°42' W 166°56'0 0.0 27.1
2015-Jan-19 14:23S 21°42' W 166°56'2 1.1 27.1
2015-Jan-19 12:46S 21°43' W 166°57'4 2.2 27.1
2015-Jan-19 11:05S 21°46' W 166°59'0 0.0 27.1
2015-Jan-19 09:29S 21°46' W 166°59'1 1.5 27.2
2015-Jan-19 08:36S 21°47' W 167°00'0 0.0 27.2
2015-Jan-19 08:30S 21°47' W 167°00'1 1.6 27.2
2015-Jan-19 07:46S 21°48' W 167°01'3 1.2 27.2
2015-Jan-19 05:16S 21°50' W 167°04'1 1.4 27.3
2015-Jan-19 04:47S 21°50' W 167°04'0 1.0 27.3
2015-Jan-19 04:36S 21°50' W 167°05'1 1.4 27.4
2015-Jan-19 03:38S 21°51' W 167°06'0 1.1 27.5
2015-Jan-19 03:11S 21°51' W 167°06'3 1.8 27.5
2015-Jan-19 01:30S 21°53' W 167°09'0 0.0 27.5
2015-Jan-18 23:51S 21°53' W 167°09'3 1.2 27.5
2015-Jan-18 21:00S 21°54' W 167°12'1 6.1 27.0
2015-Jan-18 20:52S 21°55' W 167°13'0 0.0 7.5 27.0
2015-Jan-18 20:00S 21°55' W 167°13'0 0.4 26.9
2015-Jan-18 19:13S 21°55' W 167°13'116.7 26.9
2015-Jan-18 19:09S 21°55' W 167°15'2 1.0 26.9
2015-Jan-18 17:29S 21°56' W 167°16'0 0.7 26.9
2015-Jan-18 16:54S 21°55' W 167°16'0 0.6 26.9
2015-Jan-18 16:16S 21°56' W 167°16'1 1.6 26.9
2015-Jan-18 15:50S 21°55' W 167°16'1 1.9 26.9
2015-Jan-18 15:08S 21°56' W 167°18'0 0.0 26.9
2015-Jan-18 14:36S 21°56' W 167°18'0 0.3 26.9
2015-Jan-18 13:01S 21°56' W 167°18'0 0.0 26.9
2015-Jan-18 12:57S 21°56' W 167°18'1 5.9 26.9
2015-Jan-18 12:49S 21°56' W 167°17'0 0.0 26.9
2015-Jan-18 11:16S 21°56' W 167°17'2 1.3 26.9
2015-Jan-18 09:49S 21°58' W 167°18'110.1 26.9
2015-Jan-18 09:41S 21°59' W 167°19'0 0.0 26.9
2015-Jan-18 08:56S 21°59' W 167°19'0 1.2 26.9
2015-Jan-18 08:53S 21°59' W 167°19'1 0.8 7.5 26.9
2015-Jan-18 08:08S 21°60' W 167°18'1 0.6 26.9
2015-Jan-18 07:12S 22°00' W 167°18'1 3.2 27.0
2015-Jan-18 06:46S 22°01' W 167°19'2 1.4 27.0
2015-Jan-18 05:12S 22°03' W 167°21'0 0.0 27.0
2015-Jan-18 05:05S 22°03' W 167°21'0 0.0 27.0
2015-Jan-18 04:59S 22°03' W 167°21'2 1.7 27.0
2015-Jan-18 04:05S 22°04' W 167°20'0 0.0 27.0
2015-Jan-18 04:02S 22°04' W 167°20'1 1.3 27.0
2015-Jan-18 03:28S 22°05' W 167°20'322.0 27.0
2015-Jan-18 03:21S 22°07' W 167°22'0 0.0 27.0
2015-Jan-18 03:15S 22°07' W 167°22'0 0.0 27.0
2015-Jan-18 01:45S 22°07' W 167°22'0 0.9 27.0
2015-Jan-18 01:41S 22°07' W 167°22'2 1.3 27.0
2015-Jan-18 00:02S 22°09' W 167°24'4 1.7 26.9
2015-Jan-17 21:22S 22°11' W 167°27'1 0.7 26.9
2015-Jan-17 20:23S 22°12' W 167°28'2 2.3 26.9
2015-Jan-17 19:38S 22°12' W 167°30'3 3.6 26.9
2015-Jan-17 18:44S 22°14' W 167°33'1 1.6 26.9
2015-Jan-17 18:05S 22°14' W 167°32'2 1.0 26.9
2015-Jan-17 16:24S 22°14' W 167°33'1 1.1 27.0
2015-Jan-17 15:36S 22°14' W 167°34'0 0.6 27.0
2015-Jan-17 14:50S 22°15' W 167°34'0 4.2 27.0
2015-Jan-17 14:47S 22°14' W 167°34'2 1.1 27.0
2015-Jan-17 13:12S 22°16' W 167°36'0 0.0 27.0
2015-Jan-17 13:07S 22°16' W 167°36'1 0.4 27.0
2015-Jan-17 11:28S 22°16' W 167°37'   27.0
Track history (hours):
 
Tides and Currents Weather Stations Pressure Air Temp Water Temp Dewpoint Dewpoint Depression Visibility Wind Speed Wind Dir Waves Ship Positions

Aadnyj

Last reported at 2015-Jan-27 09:59 UTC. Time now 2015-Jan-27 12:31 UTC.
Position S 21°02' W 165°45'.

Length 56 m.

Type: Towing. MMSI: 413600286.

Water temperature 28.0 ° C

Date/timePositionNaut miles runAvg speedWind from/ knotsBaromVisibWave heightAir tempDewpointWater temp
2015-Jan-27 09:59S 21°02' W 165°45'0 0.1 28.0
2015-Jan-27 09:10S 21°02' W 165°45'0 3.7 28.1
2015-Jan-27 09:05S 21°02' W 165°45'0 0.0 28.1
2015-Jan-27 08:16S 21°02' W 165°45'0 0.3 28.1
2015-Jan-27 07:27S 21°02' W 165°45'0 0.2 28.1
2015-Jan-27 05:16S 21°02' W 165°45'0 0.2 28.3
2015-Jan-27 03:46S 21°02' W 165°45'0 1.0 28.4
2015-Jan-27 03:16S 21°02' W 165°45'1 0.5 28.4
2015-Jan-27 01:45S 21°03' W 165°45'0 0.0 28.5
2015-Jan-27 01:42S 21°03' W 165°45'1 0.7 28.5
2015-Jan-27 00:01S 21°03' W 165°46'1 0.4 28.4
2015-Jan-26 21:29S 21°03' W 165°47'1 0.9 28.2
2015-Jan-26 20:36S 21°03' W 165°48'0 0.2 28.0
2015-Jan-26 19:52S 21°03' W 165°48'0 0.2 27.8
2015-Jan-26 18:57S 21°04' W 165°48'1 0.9 27.7
2015-Jan-26 18:15S 21°04' W 165°49'0 0.1 27.6
2015-Jan-26 16:41S 21°04' W 165°49'1 0.6 27.6
2015-Jan-26 15:11S 21°04' W 165°49'1 1.4 27.6
2015-Jan-26 14:45S 21°04' W 165°49'1 0.5 27.7
2015-Jan-26 13:13S 21°04' W 165°50'0 0.0 27.7
2015-Jan-26 13:07S 21°04' W 165°50'2 1.2 27.7
2015-Jan-26 11:28S 21°04' W 165°52'0 0.2 27.9
2015-Jan-26 09:30S 21°04' W 165°53'0 0.5 28.1
2015-Jan-26 08:42S 21°04' W 165°53'1 0.8 28.2
2015-Jan-26 07:46S 21°03' W 165°53'1 0.3 28.2
2015-Jan-26 05:59S 21°03' W 165°54'0 0.1 28.4
2015-Jan-26 04:15S 21°03' W 165°54'0 1.6 28.5
2015-Jan-26 04:01S 21°03' W 165°54'0 0.4 28.5
2015-Jan-26 03:30S 21°03' W 165°54'0 0.3 28.7
2015-Jan-26 01:57S 21°04' W 165°54'0 2.6 28.7
2015-Jan-26 01:51S 21°03' W 165°55'0 0.1 28.7
2015-Jan-26 00:15S 21°03' W 165°55'1 0.5 28.7
2015-Jan-25 21:54S 21°03' W 165°56'0 0.2 28.0
2015-Jan-25 20:50S 21°04' W 165°56'0 0.0 27.7
2015-Jan-25 20:15S 21°04' W 165°56'0 0.0 27.5
2015-Jan-25 20:12S 21°04' W 165°56'0 0.3 27.5
2015-Jan-25 19:16S 21°03' W 165°56'1 1.6 27.4
2015-Jan-25 18:50S 21°04' W 165°56'1 0.3 27.3
2015-Jan-25 17:12S 21°04' W 165°57'1 0.7 27.3
2015-Jan-25 15:28S 21°05' W 165°57'0 0.1 27.3
2015-Jan-25 14:56S 21°05' W 165°57'1 0.8 27.3
2015-Jan-25 13:24S 21°06' W 165°58'0 0.4 27.3
2015-Jan-25 13:16S 21°06' W 165°58'111.7 27.3
2015-Jan-25 13:12S 21°06' W 165°59'0 0.0 27.3
2015-Jan-25 11:40S 21°06' W 165°59'1 0.6 27.4
2015-Jan-25 09:46S 21°06' W 166°00'0 0.7 27.4
2015-Jan-25 09:05S 21°06' W 166°01'0 0.0 27.4
2015-Jan-25 09:01S 21°06' W 166°01'0 0.1 27.4
2015-Jan-25 08:11S 21°06' W 166°01'1 0.9 27.5
2015-Jan-25 07:20S 21°06' W 166°01'0 0.0 27.5
2015-Jan-25 06:27S 21°06' W 166°01'1 0.5 27.6
2015-Jan-25 05:16S 21°07' W 166°02'0 0.7 27.6
2015-Jan-25 04:46S 21°07' W 166°02'1 0.8 27.7
2015-Jan-25 03:43S 21°07' W 166°03'0 0.0 27.7
2015-Jan-25 03:40S 21°07' W 166°03'1 1.4 27.7
2015-Jan-25 03:07S 21°07' W 166°04'0 0.0 27.6
2015-Jan-25 02:45S 21°07' W 166°04'0 0.0 27.6
2015-Jan-25 02:08S 21°07' W 166°04'0 0.0 27.6
2015-Jan-25 02:04S 21°07' W 166°04'1 0.7 27.6
2015-Jan-25 00:26S 21°07' W 166°05'0 0.1 27.6
2015-Jan-24 20:37S 21°07' W 166°05'0 0.4 27.4
2015-Jan-24 20:29S 21°07' W 166°05'0 0.4 27.4
2015-Jan-24 19:39S 21°06' W 166°06'0 0.0 27.3
2015-Jan-24 19:16S 21°06' W 166°06'1 0.4 27.3
2015-Jan-24 17:45S 21°07' W 166°06'0 1.3 27.2
2015-Jan-24 17:40S 21°07' W 166°06'1 1.2 27.2
2015-Jan-24 16:50S 21°07' W 166°07'0 0.0 27.2
2015-Jan-24 16:04S 21°07' W 166°07'1 3.6 27.3
2015-Jan-24 15:53S 21°08' W 166°07'0 0.0 27.3
2015-Jan-24 15:10S 21°08' W 166°07'0 0.0 27.3
2015-Jan-24 15:06S 21°08' W 166°07'1 1.4 27.3
2015-Jan-24 14:21S 21°08' W 166°08'0 0.2 27.3
2015-Jan-24 11:51S 21°09' W 166°08'1 0.4 27.3
2015-Jan-24 09:25S 21°09' W 166°09'1 0.6 27.4
2015-Jan-24 08:30S 21°10' W 166°10'0 0.3 27.4
2015-Jan-24 07:42S 21°10' W 166°10'1 0.5 27.4
2015-Jan-24 05:16S 21°10' W 166°11'2 1.2 27.6
2015-Jan-24 03:55S 21°11' W 166°13'0 0.0 27.6
2015-Jan-24 03:52S 21°11' W 166°13'0 1.5 27.6
2015-Jan-24 03:40S 21°11' W 166°12'1 1.1 27.6
2015-Jan-24 03:13S 21°11' W 166°13'0 0.4 27.7
2015-Jan-24 02:16S 21°11' W 166°13'0 0.0 27.7
2015-Jan-24 02:15S 21°11' W 166°13'1 8.8 27.7
2015-Jan-24 02:08S 21°11' W 166°14'0 0.0 27.7
2015-Jan-24 00:38S 21°11' W 166°14'0 3.4
2015-Jan-24 00:37S 21°11' W 166°14'1 0.4 27.5
2015-Jan-23 20:57S 21°11' W 166°16'0 3.7 27.2
2015-Jan-23 20:51S 21°11' W 166°16'0 0.0 27.2
2015-Jan-23 19:59S 21°11' W 166°16'0 0.6 27.2
2015-Jan-23 19:14S 21°11' W 166°16'1 0.2 27.1
2015-Jan-23 16:30S 21°11' W 166°17'0 0.4 27.1
2015-Jan-23 15:16S 21°10' W 166°17'0 0.6 27.2
2015-Jan-23 14:45S 21°11' W 166°17'0 0.0 27.2
2015-Jan-23 13:46S 21°11' W 166°17'0 0.0 27.2
2015-Jan-23 13:37S 21°11' W 166°17'121.2 27.2
2015-Jan-23 13:33S 21°11' W 166°18'0 0.0 27.2
2015-Jan-23 12:05S 21°11' W 166°18'0 2.4 27.2
2015-Jan-23 12:02S 21°11' W 166°18'1 0.2 27.2
2015-Jan-23 09:44S 21°12' W 166°19'1 1.6 27.2
2015-Jan-23 08:53S 21°12' W 166°20'0 1.2 27.2
2015-Jan-23 08:50S 21°12' W 166°20'1 0.9 27.2
2015-Jan-23 08:05S 21°12' W 166°19'0 0.1 27.2
2015-Jan-23 07:09S 21°12' W 166°19'0 0.3 27.2
2015-Jan-23 05:53S 21°13' W 166°20'0 0.4 27.3
2015-Jan-23 05:42S 21°13' W 166°20'0 0.1 27.3
2015-Jan-23 05:16S 21°13' W 166°20'1 0.7 27.3
2015-Jan-23 04:14S 21°13' W 166°20'0 4.5 27.3
2015-Jan-23 04:11S 21°13' W 166°20'0 1.0 27.3
2015-Jan-23 03:58S 21°13' W 166°20'0 0.7 27.4
2015-Jan-23 03:40S 21°13' W 166°20'1 0.6 27.4
2015-Jan-23 02:25S 21°14' W 166°21'115.4 27.4
2015-Jan-23 02:21S 21°13' W 166°21'1 0.9 27.4
2015-Jan-23 00:49S 21°14' W 166°22'0 0.0 27.4
2015-Jan-23 00:48S 21°14' W 166°22'1 7.3 27.4
2015-Jan-23 00:38S 21°14' W 166°23'1 0.2 27.4
2015-Jan-22 21:15S 21°14' W 166°23'0 0.2 27.2
2015-Jan-22 20:17S 21°14' W 166°24'0 0.0 27.2
2015-Jan-22 19:30S 21°14' W 166°24'1 1.2 27.1
2015-Jan-22 18:45S 21°14' W 166°24'0 0.0 27.1
2015-Jan-22 18:40S 21°14' W 166°24'1 0.7 27.1
2015-Jan-22 17:11S 21°15' W 166°24'0 0.7 27.1
2015-Jan-22 17:06S 21°15' W 166°24'0 0.0 27.1
2015-Jan-22 15:10S 21°15' W 166°24'2 1.4 27.1
2015-Jan-22 13:57S 21°15' W 166°26'0 0.0 27.2
2015-Jan-22 13:49S 21°15' W 166°26'0 0.0 27.2
2015-Jan-22 12:16S 21°15' W 166°26'0 0.0 27.2
2015-Jan-22 12:13S 21°15' W 166°26'1 0.5 27.2
2015-Jan-22 10:48S 21°16' W 166°26'1 0.3 27.2
2015-Jan-22 08:25S 21°16' W 166°27'0 0.3 27.2
2015-Jan-22 07:29S 21°16' W 166°27'0 0.4 27.3
2015-Jan-22 06:23S 21°16' W 166°28'1 1.2 27.3
2015-Jan-22 05:53S 21°17' W 166°28'0 0.0 27.3
2015-Jan-22 04:45S 21°17' W 166°28'0 0.0 27.4
2015-Jan-22 04:42S 21°17' W 166°28'0 0.7 27.4
2015-Jan-22 04:14S 21°17' W 166°28'0 2.7 27.4
2015-Jan-22 04:05S 21°17' W 166°28'0 5.7 27.4
2015-Jan-22 04:03S 21°17' W 166°28'0 0.3 27.4
2015-Jan-22 03:01S 21°17' W 166°28'0 0.8 27.4
2015-Jan-22 02:39S 21°17' W 166°28'0 1.9 27.4
2015-Jan-22 02:30S 21°17' W 166°28'1 0.7 27.4
2015-Jan-22 00:59S 21°18' W 166°29'1 0.4 27.4
2015-Jan-21 21:37S 21°19' W 166°30'1 0.5 27.2
2015-Jan-21 19:55S 21°19' W 166°31'1 0.8 27.1
2015-Jan-21 19:13S 21°20' W 166°31'0 1.1 27.1
2015-Jan-21 19:01S 21°20' W 166°31'1 0.7 27.1
2015-Jan-21 17:35S 21°21' W 166°31'1 5.3 27.0
2015-Jan-21 17:21S 21°21' W 166°32'0 0.0 27.0
2015-Jan-21 15:58S 21°21' W 166°32'0 0.0 27.1
2015-Jan-21 15:45S 21°21' W 166°32'1 7.7 27.1
2015-Jan-21 15:39S 21°22' W 166°32'1 0.5 27.1
2015-Jan-21 14:00S 21°22' W 166°33'1 0.7 27.1
2015-Jan-21 12:24S 21°23' W 166°34'2 0.6 27.1
2015-Jan-21 08:47S 21°24' W 166°36'0 0.1 27.2
2015-Jan-21 07:53S 21°24' W 166°36'1 0.6 27.2
2015-Jan-21 06:01S 21°25' W 166°36'0 0.0 27.2
2015-Jan-21 05:16S 21°25' W 166°36'0 3.4 27.3
2015-Jan-21 05:11S 21°25' W 166°36'1 1.5 27.3
2015-Jan-21 04:30S 21°25' W 166°37'1 4.2 27.3
2015-Jan-21 04:22S 21°26' W 166°37'0 0.0 27.3
2015-Jan-21 03:34S 21°26' W 166°37'0 0.5 27.3
2015-Jan-21 02:46S 21°26' W 166°37'2 0.9 27.3
2015-Jan-21 01:10S 21°27' W 166°39'3 0.9 27.4
2015-Jan-20 21:57S 21°29' W 166°41'1 0.6 27.2
2015-Jan-20 21:00S 21°29' W 166°40'1 5.9 27.1
2015-Jan-20 20:54S 21°29' W 166°41'1 0.8 27.1
2015-Jan-20 20:12S 21°29' W 166°41'0 0.4 27.1
2015-Jan-20 19:21S 21°29' W 166°41'1 0.6 27.1
2015-Jan-20 18:10S 21°30' W 166°41'1 0.6 27.1
2015-Jan-20 16:30S 21°31' W 166°42'1 1.0 27.1
2015-Jan-20 15:58S 21°31' W 166°42'0 5.3 27.1
2015-Jan-20 15:56S 21°31' W 166°42'0 1.8 27.1
2015-Jan-20 15:50S 21°31' W 166°42'110.7 27.1
2015-Jan-20 15:44S 21°32' W 166°43'0 0.2 27.1
2015-Jan-20 14:12S 21°32' W 166°43'2 1.0 27.1
2015-Jan-20 12:39S 21°33' W 166°44'0 0.0 27.1
2015-Jan-20 12:30S 21°33' W 166°44'2 0.8 27.1
2015-Jan-20 09:54S 21°34' W 166°46'1 0.8 27.2
2015-Jan-20 09:04S 21°35' W 166°47'1 0.8 27.2
2015-Jan-20 08:14S 21°35' W 166°47'1 0.7 27.2
2015-Jan-20 07:25S 21°35' W 166°47'2 1.0 27.2
2015-Jan-20 05:47S 21°36' W 166°49'0 0.4 27.3
2015-Jan-20 04:54S 21°36' W 166°49'1 5.7 27.4
2015-Jan-20 04:47S 21°37' W 166°50'0 0.0 27.4
2015-Jan-20 04:08S 21°37' W 166°50'0 1.2 27.4
2015-Jan-20 04:05S 21°37' W 166°50'1 1.1 27.4
2015-Jan-20 03:12S 21°37' W 166°51'0 0.0 27.5
2015-Jan-20 03:01S 21°37' W 166°51'0 6.7 27.5
2015-Jan-20 02:58S 21°37' W 166°51'1 0.8 27.5
2015-Jan-20 01:22S 21°38' W 166°52'0 0.0 27.5
2015-Jan-20 01:20S 21°38' W 166°52'1 0.8 27.5
2015-Jan-19 23:38S 21°38' W 166°53'0 0.2 27.4
2015-Jan-19 20:35S 21°39' W 166°54'1 0.8 27.2
2015-Jan-19 19:46S 21°39' W 166°54'0 1.1
2015-Jan-19 19:43S 21°39' W 166°54'2 1.9 27.1
2015-Jan-19 18:51S 21°40' W 166°55'1 5.2 27.1
2015-Jan-19 18:41S 21°39' W 166°55'1 0.5 27.1
2015-Jan-19 17:00S 21°40' W 166°55'1 0.9 27.0
2015-Jan-19 16:07S 21°41' W 166°56'0 0.6 27.1
2015-Jan-19 16:01S 21°41' W 166°56'1 0.6 27.1
2015-Jan-19 14:45S 21°41' W 166°56'0 1.5 27.1
2015-Jan-19 14:29S 21°42' W 166°56'0 5.9 27.1
2015-Jan-19 14:26S 21°42' W 166°56'0 0.0 27.1
2015-Jan-19 14:23S 21°42' W 166°56'2 1.1 27.1
2015-Jan-19 12:46S 21°43' W 166°57'4 2.2 27.1
2015-Jan-19 11:05S 21°46' W 166°59'0 0.0 27.1
2015-Jan-19 09:29S 21°46' W 166°59'1 1.5 27.2
2015-Jan-19 08:36S 21°47' W 167°00'0 0.0 27.2
2015-Jan-19 08:30S 21°47' W 167°00'1 1.6 27.2
2015-Jan-19 07:46S 21°48' W 167°01'3 1.2 27.2
2015-Jan-19 05:16S 21°50' W 167°04'1 1.4 27.3
2015-Jan-19 04:47S 21°50' W 167°04'0 1.0 27.3
2015-Jan-19 04:36S 21°50' W 167°05'1 1.4 27.4
2015-Jan-19 03:38S 21°51' W 167°06'0 1.1 27.5
2015-Jan-19 03:11S 21°51' W 167°06'3 1.8 27.5
2015-Jan-19 01:30S 21°53' W 167°09'0 0.0 27.5
2015-Jan-18 23:51S 21°53' W 167°09'3 1.2 27.5
2015-Jan-18 21:00S 21°54' W 167°12'1 6.1 27.0
2015-Jan-18 20:52S 21°55' W 167°13'0 0.0 7.5 27.0
2015-Jan-18 20:00S 21°55' W 167°13'0 0.4 26.9
2015-Jan-18 19:13S 21°55' W 167°13'116.7 26.9
2015-Jan-18 19:09S 21°55' W 167°15'2 1.0 26.9
2015-Jan-18 17:29S 21°56' W 167°16'0 0.7 26.9
2015-Jan-18 16:54S 21°55' W 167°16'0 0.6 26.9
2015-Jan-18 16:16S 21°56' W 167°16'1 1.6 26.9
2015-Jan-18 15:50S 21°55' W 167°16'1 1.9 26.9
2015-Jan-18 15:08S 21°56' W 167°18'0 0.0 26.9
2015-Jan-18 14:36S 21°56' W 167°18'0 0.3 26.9
2015-Jan-18 13:01S 21°56' W 167°18'0 0.0 26.9
2015-Jan-18 12:57S 21°56' W 167°18'1 5.9 26.9
2015-Jan-18 12:49S 21°56' W 167°17'0 0.0 26.9
2015-Jan-18 11:16S 21°56' W 167°17'2 1.3 26.9
2015-Jan-18 09:49S 21°58' W 167°18'110.1 26.9
2015-Jan-18 09:41S 21°59' W 167°19'0 0.0 26.9
2015-Jan-18 08:56S 21°59' W 167°19'0 1.2 26.9
2015-Jan-18 08:53S 21°59' W 167°19'1 0.8 7.5 26.9
2015-Jan-18 08:08S 21°60' W 167°18'1 0.6 26.9
2015-Jan-18 07:12S 22°00' W 167°18'1 3.2 27.0
2015-Jan-18 06:46S 22°01' W 167°19'2 1.4 27.0
2015-Jan-18 05:12S 22°03' W 167°21'0 0.0 27.0
2015-Jan-18 05:05S 22°03' W 167°21'0 0.0 27.0
2015-Jan-18 04:59S 22°03' W 167°21'2 1.7 27.0
2015-Jan-18 04:05S 22°04' W 167°20'0 0.0 27.0
2015-Jan-18 04:02S 22°04' W 167°20'1 1.3 27.0
2015-Jan-18 03:28S 22°05' W 167°20'322.0 27.0
2015-Jan-18 03:21S 22°07' W 167°22'0 0.0 27.0
2015-Jan-18 03:15S 22°07' W 167°22'0 0.0 27.0
2015-Jan-18 01:45S 22°07' W 167°22'0 0.9 27.0
2015-Jan-18 01:41S 22°07' W 167°22'2 1.3 27.0
2015-Jan-18 00:02S 22°09' W 167°24'4 1.7 26.9
2015-Jan-17 21:22S 22°11' W 167°27'1 0.7 26.9
2015-Jan-17 20:23S 22°12' W 167°28'2 2.3 26.9
2015-Jan-17 19:38S 22°12' W 167°30'3 3.6 26.9
2015-Jan-17 18:44S 22°14' W 167°33'1 1.6 26.9
2015-Jan-17 18:05S 22°14' W 167°32'2 1.0 26.9
2015-Jan-17 16:24S 22°14' W 167°33'1 1.1 27.0
2015-Jan-17 15:36S 22°14' W 167°34'0 0.6 27.0
2015-Jan-17 14:50S 22°15' W 167°34'0 4.2 27.0
2015-Jan-17 14:47S 22°14' W 167°34'2 1.1 27.0
2015-Jan-17 13:12S 22°16' W 167°36'0 0.0 27.0
2015-Jan-17 13:07S 22°16' W 167°36'1 0.4 27.0
2015-Jan-17 11:28S 22°16' W 167°37'   27.0

Dump ship's entire track history